sensor_id;sensor_type;location;lat;lon;timestamp;pressure;altitude;pressure_sealevel;temperature;humidity
1652;BME280;823;49.028;8.454;2022-08-19T00:00:50;99980.88;;;25.43;49.94
1652;BME280;823;49.028;8.454;2022-08-19T00:05:50;99983.84;;;25.40;50.10
1652;BME280;823;49.028;8.454;2022-08-19T00:10:50;99990.81;;;25.41;49.86
1652;BME280;823;49.028;8.454;2022-08-19T00:15:51;99991.28;;;25.36;50.23
1652;BME280;823;49.028;8.454;2022-08-19T00:20:51;99997.41;;;25.37;49.73
1652;BME280;823;49.028;8.454;2022-08-19T00:25:52;99983.66;;;25.33;50.37
1652;BME280;823;49.028;8.454;2022-08-19T00:30:53;99985.72;;;25.29;50.87
1652;BME280;823;49.028;8.454;2022-08-19T00:35:54;99994.91;;;25.35;50.26
1652;BME280;823;49.028;8.454;2022-08-19T00:40:55;100009.13;;;25.34;50.71
1652;BME280;823;49.028;8.454;2022-08-19T00:45:56;99998.56;;;25.34;50.57
1652;BME280;823;49.028;8.454;2022-08-19T00:50:57;99979.69;;;25.37;50.47
1652;BME280;823;49.028;8.454;2022-08-19T00:55:59;99941.13;;;25.35;50.42
1652;BME280;823;49.028;8.454;2022-08-19T01:01:03;99940.81;;;25.38;50.91
1652;BME280;823;49.028;8.454;2022-08-19T01:06:04;99969.28;;;25.36;50.98
1652;BME280;823;49.028;8.454;2022-08-19T01:11:06;99987.13;;;25.33;51.04
1652;BME280;823;49.028;8.454;2022-08-19T01:16:10;99992.41;;;25.33;50.99
1652;BME280;823;49.028;8.454;2022-08-19T01:21:49;99985.16;;;25.36;51.67
1652;BME280;823;49.028;8.454;2022-08-19T01:26:43;99975.16;;;25.29;52.26
1652;BME280;823;49.028;8.454;2022-08-19T01:31:44;99974.34;;;25.29;52.17
1652;BME280;823;49.028;8.454;2022-08-19T01:36:47;99990.78;;;25.32;52.63
1652;BME280;823;49.028;8.454;2022-08-19T01:41:49;99986.28;;;25.33;53.43
1652;BME280;823;49.028;8.454;2022-08-19T01:46:51;99991.59;;;25.33;53.31
1652;BME280;823;49.028;8.454;2022-08-19T01:51:53;99982.28;;;25.29;53.59
1652;BME280;823;49.028;8.454;2022-08-19T01:57:01;99983.41;;;25.26;53.90
1652;BME280;823;49.028;8.454;2022-08-19T02:02:05;99979.09;;;25.25;54.10
1652;BME280;823;49.028;8.454;2022-08-19T02:07:07;99974.50;;;25.27;53.97
1652;BME280;823;49.028;8.454;2022-08-19T02:12:08;99971.31;;;25.24;54.01
1652;BME280;823;49.028;8.454;2022-08-19T02:17:08;99982.38;;;25.19;54.33
1652;BME280;823;49.028;8.454;2022-08-19T02:22:09;99988.81;;;25.16;54.37
1652;BME280;823;49.028;8.454;2022-08-19T02:27:09;99982.84;;;25.14;54.81
1652;BME280;823;49.028;8.454;2022-08-19T02:32:09;99982.31;;;25.11;54.93
1652;BME280;823;49.028;8.454;2022-08-19T02:37:10;99980.81;;;25.08;54.87
1652;BME280;823;49.028;8.454;2022-08-19T02:42:30;99978.00;;;25.10;54.80
1652;BME280;823;49.028;8.454;2022-08-19T02:47:32;99973.41;;;25.12;54.85
1652;BME280;823;49.028;8.454;2022-08-19T02:52:33;99963.28;;;25.07;54.84
1652;BME280;823;49.028;8.454;2022-08-19T02:57:34;99975.31;;;25.02;55.11
1652;BME280;823;49.028;8.454;2022-08-19T03:02:35;99973.66;;;25.01;54.98
1652;BME280;823;49.028;8.454;2022-08-19T03:07:36;99979.09;;;24.99;55.08
1652;BME280;823;49.028;8.454;2022-08-19T03:12:37;99981.88;;;24.97;54.81
1652;BME280;823;49.028;8.454;2022-08-19T03:17:38;99981.38;;;24.94;54.90
1652;BME280;823;49.028;8.454;2022-08-19T03:22:39;99985.00;;;24.93;55.49
1652;BME280;823;49.028;8.454;2022-08-19T03:27:39;99985.47;;;24.88;55.20
1652;BME280;823;49.028;8.454;2022-08-19T03:32:39;99989.09;;;24.87;55.28
1652;BME280;823;49.028;8.454;2022-08-19T03:37:40;99998.72;;;24.88;55.37
1652;BME280;823;49.028;8.454;2022-08-19T03:42:41;99998.16;;;24.85;56.07
1652;BME280;823;49.028;8.454;2022-08-19T03:47:42;99992.34;;;24.81;56.70
1652;BME280;823;49.028;8.454;2022-08-19T03:52:42;99991.59;;;24.71;56.65
1652;BME280;823;49.028;8.454;2022-08-19T03:57:47;99988.28;;;24.69;56.23
1652;BME280;823;49.028;8.454;2022-08-19T04:02:48;99988.66;;;24.74;56.31
1652;BME280;823;49.028;8.454;2022-08-19T04:07:48;99996.59;;;24.74;56.56
1652;BME280;823;49.028;8.454;2022-08-19T04:12:49;99988.97;;;24.71;56.71
1652;BME280;823;49.028;8.454;2022-08-19T04:17:49;100000.66;;;24.68;56.73
1652;BME280;823;49.028;8.454;2022-08-19T04:22:50;100007.25;;;24.64;57.00
1652;BME280;823;49.028;8.454;2022-08-19T04:27:50;100014.63;;;24.60;56.67
1652;BME280;823;49.028;8.454;2022-08-19T04:32:50;100005.03;;;24.59;57.07
1652;BME280;823;49.028;8.454;2022-08-19T04:37:51;100005.56;;;24.63;56.58
1652;BME280;823;49.028;8.454;2022-08-19T04:42:51;100010.72;;;24.64;56.26
1652;BME280;823;49.028;8.454;2022-08-19T04:47:55;100013.66;;;24.61;56.60
1652;BME280;823;49.028;8.454;2022-08-19T04:52:56;100016.31;;;24.61;56.08
1652;BME280;823;49.028;8.454;2022-08-19T04:57:56;100022.13;;;24.65;56.08
1652;BME280;823;49.028;8.454;2022-08-19T05:02:56;100030.06;;;24.65;56.14
1652;BME280;823;49.028;8.454;2022-08-19T05:07:57;100023.03;;;24.74;55.50
1652;BME280;823;49.028;8.454;2022-08-19T05:12:57;100014.66;;;24.78;55.58
1652;BME280;823;49.028;8.454;2022-08-19T05:17:58;100027.56;;;24.81;56.03
1652;BME280;823;49.028;8.454;2022-08-19T05:23:17;100038.22;;;24.90;54.91
1652;BME280;823;49.028;8.454;2022-08-19T05:28:19;100042.66;;;24.89;55.06
1652;BME280;823;49.028;8.454;2022-08-19T05:33:19;100049.78;;;24.89;55.25
1652;BME280;823;49.028;8.454;2022-08-19T05:38:20;100068.66;;;25.12;54.70
1652;BME280;823;49.028;8.454;2022-08-19T05:43:21;100069.72;;;25.01;55.56
1652;BME280;823;49.028;8.454;2022-08-19T05:48:21;100084.63;;;25.02;55.56
1652;BME280;823;49.028;8.454;2022-08-19T05:53:21;100090.06;;;25.01;55.25
1652;BME280;823;49.028;8.454;2022-08-19T05:58:22;100099.38;;;25.05;55.35
1652;BME280;823;49.028;8.454;2022-08-19T06:03:23;100097.00;;;25.02;54.83
1652;BME280;823;49.028;8.454;2022-08-19T06:08:24;100101.31;;;25.03;54.73
1652;BME280;823;49.028;8.454;2022-08-19T06:13:25;100103.22;;;25.10;53.93
1652;BME280;823;49.028;8.454;2022-08-19T06:18:25;100102.53;;;25.08;53.56
1652;BME280;823;49.028;8.454;2022-08-19T06:23:26;100098.44;;;25.14;53.75
1652;BME280;823;49.028;8.454;2022-08-19T06:28:26;100092.84;;;25.17;54.06
1652;BME280;823;49.028;8.454;2022-08-19T06:33:26;100099.47;;;25.21;53.94
1652;BME280;823;49.028;8.454;2022-08-19T06:38:27;100109.47;;;25.27;53.45
1652;BME280;823;49.028;8.454;2022-08-19T06:43:27;100110.84;;;25.31;53.26
1652;BME280;823;49.028;8.454;2022-08-19T06:48:27;100117.66;;;25.34;52.21
1652;BME280;823;49.028;8.454;2022-08-19T06:53:28;100106.06;;;25.35;51.50
1652;BME280;823;49.028;8.454;2022-08-19T06:58:29;100111.31;;;25.45;49.95
1652;BME280;823;49.028;8.454;2022-08-19T07:03:34;100112.94;;;25.46;48.58
1652;BME280;823;49.028;8.454;2022-08-19T07:08:35;100114.50;;;25.57;48.52
1652;BME280;823;49.028;8.454;2022-08-19T07:13:37;100117.38;;;25.63;48.51
1652;BME280;823;49.028;8.454;2022-08-19T07:18:38;100113.44;;;25.67;47.32
1652;BME280;823;49.028;8.454;2022-08-19T07:23:39;100116.78;;;25.78;47.10
1652;BME280;823;49.028;8.454;2022-08-19T07:28:40;100108.88;;;25.86;46.86
1652;BME280;823;49.028;8.454;2022-08-19T07:33:41;100110.56;;;25.87;46.08
1652;BME280;823;49.028;8.454;2022-08-19T07:38:45;100108.28;;;25.92;45.77
1652;BME280;823;49.028;8.454;2022-08-19T07:43:47;100111.44;;;25.96;46.09
1652;BME280;823;49.028;8.454;2022-08-19T07:48:49;100113.91;;;25.97;45.65
1652;BME280;823;49.028;8.454;2022-08-19T07:53:51;100107.09;;;26.13;45.65
1652;BME280;823;49.028;8.454;2022-08-19T07:58:52;100114.91;;;26.23;45.06
1652;BME280;823;49.028;8.454;2022-08-19T08:03:53;100121.34;;;26.20;44.98
1652;BME280;823;49.028;8.454;2022-08-19T08:09:15;100115.41;;;26.26;45.10
1652;BME280;823;49.028;8.454;2022-08-19T08:14:29;100127.03;;;26.25;45.16
1652;BME280;823;49.028;8.454;2022-08-19T08:19:30;100126.19;;;26.25;45.46
1652;BME280;823;49.028;8.454;2022-08-19T08:24:30;100121.09;;;26.40;45.28
1652;BME280;823;49.028;8.454;2022-08-19T08:29:31;100109.53;;;26.49;45.16
1652;BME280;823;49.028;8.454;2022-08-19T08:34:31;100116.03;;;26.63;44.56
1652;BME280;823;49.028;8.454;2022-08-19T08:39:31;100115.28;;;26.87;44.12
1652;BME280;823;49.028;8.454;2022-08-19T08:49:46;100137.03;;;27.15;43.31
1652;BME280;823;49.028;8.454;2022-08-19T08:54:52;100127.41;;;27.23;42.26
1652;BME280;823;49.028;8.454;2022-08-19T08:59:55;100124.56;;;26.99;42.27
1652;BME280;823;49.028;8.454;2022-08-19T09:04:57;100126.75;;;26.96;41.64
1652;BME280;823;49.028;8.454;2022-08-19T09:10:27;100126.59;;;27.14;42.09
1652;BME280;823;49.028;8.454;2022-08-19T09:15:34;100127.25;;;27.16;41.75
1652;BME280;823;49.028;8.454;2022-08-19T09:20:36;100127.75;;;27.11;42.43
1652;BME280;823;49.028;8.454;2022-08-19T09:25:37;100120.94;;;27.25;42.19
1652;BME280;823;49.028;8.454;2022-08-19T09:30:41;100123.59;;;27.33;41.80
1652;BME280;823;49.028;8.454;2022-08-19T09:35:41;100122.13;;;27.64;41.88
1652;BME280;823;49.028;8.454;2022-08-19T09:40:41;100117.91;;;27.94;41.11
1652;BME280;823;49.028;8.454;2022-08-19T09:45:42;100113.19;;;28.13;40.10
1652;BME280;823;49.028;8.454;2022-08-19T09:50:43;100098.78;;;27.91;39.66
1652;BME280;823;49.028;8.454;2022-08-19T09:55:43;100107.59;;;27.99;39.09
1652;BME280;823;49.028;8.454;2022-08-19T10:00:43;100118.13;;;28.24;38.82
1652;BME280;823;49.028;8.454;2022-08-19T10:05:45;100113.53;;;28.10;38.90
1652;BME280;823;49.028;8.454;2022-08-19T10:10:49;100126.34;;;28.06;38.32
1652;BME280;823;49.028;8.454;2022-08-19T10:15:51;100132.75;;;28.28;38.34
1652;BME280;823;49.028;8.454;2022-08-19T10:21:01;100120.91;;;28.39;37.06
1652;BME280;823;49.028;8.454;2022-08-19T10:26:04;100125.53;;;28.77;37.00
1652;BME280;823;49.028;8.454;2022-08-19T10:31:09;100117.69;;;29.07;35.66
1652;BME280;823;49.028;8.454;2022-08-19T10:36:12;100112.66;;;29.50;34.94
1652;BME280;823;49.028;8.454;2022-08-19T10:41:23;100105.88;;;29.47;34.63
1652;BME280;823;49.028;8.454;2022-08-19T10:46:26;100094.94;;;29.57;34.73
1652;BME280;823;49.028;8.454;2022-08-19T10:51:26;100097.22;;;29.60;34.80
1652;BME280;823;49.028;8.454;2022-08-19T10:56:45;100088.59;;;29.58;35.25
1652;BME280;823;49.028;8.454;2022-08-19T11:01:52;100086.31;;;29.55;34.48
1652;BME280;823;49.028;8.454;2022-08-19T11:06:52;100070.53;;;29.98;34.58
1652;BME280;823;49.028;8.454;2022-08-19T11:11:52;100069.78;;;30.04;33.80
1652;BME280;823;49.028;8.454;2022-08-19T11:16:53;100056.34;;;30.13;33.75
1652;BME280;823;49.028;8.454;2022-08-19T11:21:56;100061.97;;;30.03;33.07
1652;BME280;823;49.028;8.454;2022-08-19T11:27:02;100051.66;;;30.00;33.48
1652;BME280;823;49.028;8.454;2022-08-19T11:32:07;100043.88;;;29.98;32.61
1652;BME280;823;49.028;8.454;2022-08-19T11:37:08;100046.44;;;30.06;33.01
1652;BME280;823;49.028;8.454;2022-08-19T11:42:09;100032.53;;;30.11;33.00
1652;BME280;823;49.028;8.454;2022-08-19T11:47:28;100035.53;;;30.23;32.65
1652;BME280;823;49.028;8.454;2022-08-19T11:52:30;100038.69;;;30.12;32.95
1652;BME280;823;49.028;8.454;2022-08-19T11:57:31;100049.19;;;29.98;33.04
1652;BME280;823;49.028;8.454;2022-08-19T12:02:32;100040.78;;;30.16;33.17
1652;BME280;823;49.028;8.454;2022-08-19T12:07:33;100041.66;;;30.38;32.34
1652;BME280;823;49.028;8.454;2022-08-19T12:12:34;100049.75;;;30.45;32.06
1652;BME280;823;49.028;8.454;2022-08-19T12:17:34;100057.84;;;30.52;31.87
1652;BME280;823;49.028;8.454;2022-08-19T12:22:36;100062.09;;;30.31;31.89
1652;BME280;823;49.028;8.454;2022-08-19T12:27:37;100064.31;;;30.28;32.26
1652;BME280;823;49.028;8.454;2022-08-19T12:32:39;100063.59;;;30.19;31.83
1652;BME280;823;49.028;8.454;2022-08-19T12:37:39;100061.94;;;30.18;31.90
1652;BME280;823;49.028;8.454;2022-08-19T12:42:42;100056.19;;;30.51;31.54
1652;BME280;823;49.028;8.454;2022-08-19T12:47:43;100060.63;;;30.65;31.34
1652;BME280;823;49.028;8.454;2022-08-19T12:52:43;100052.56;;;30.80;30.60
1652;BME280;823;49.028;8.454;2022-08-19T12:57:44;100054.03;;;30.83;30.82
1652;BME280;823;49.028;8.454;2022-08-19T13:02:46;100050.31;;;31.05;30.51
1652;BME280;823;49.028;8.454;2022-08-19T13:07:48;100038.34;;;31.23;29.58
1652;BME280;823;49.028;8.454;2022-08-19T13:12:50;100047.91;;;31.11;28.57
1652;BME280;823;49.028;8.454;2022-08-19T13:17:52;100042.19;;;30.92;29.04
1652;BME280;823;49.028;8.454;2022-08-19T13:22:54;100030.44;;;30.65;28.97
1652;BME280;823;49.028;8.454;2022-08-19T13:27:54;100032.44;;;30.56;29.25
1652;BME280;823;49.028;8.454;2022-08-19T13:32:55;100027.09;;;30.56;28.45
1652;BME280;823;49.028;8.454;2022-08-19T13:38:11;100034.44;;;30.54;28.21
1652;BME280;823;49.028;8.454;2022-08-19T13:43:13;100021.97;;;30.61;27.72
1652;BME280;823;49.028;8.454;2022-08-19T13:48:13;100016.91;;;30.88;26.22
1652;BME280;823;49.028;8.454;2022-08-19T13:53:15;100012.06;;;31.27;27.84
1652;BME280;823;49.028;8.454;2022-08-19T13:58:15;100012.78;;;31.42;26.41
1652;BME280;823;49.028;8.454;2022-08-19T14:03:15;100009.03;;;31.36;25.44
1652;BME280;823;49.028;8.454;2022-08-19T14:08:16;100005.72;;;31.63;25.92
1652;BME280;823;49.028;8.454;2022-08-19T14:13:19;100003.41;;;31.60;25.65
1652;BME280;823;49.028;8.454;2022-08-19T14:18:21;100010.91;;;31.78;25.88
1652;BME280;823;49.028;8.454;2022-08-19T14:23:21;100010.91;;;31.71;24.68
1652;BME280;823;49.028;8.454;2022-08-19T14:28:22;100005.94;;;31.61;24.04
1652;BME280;823;49.028;8.454;2022-08-19T14:33:22;100001.25;;;31.77;24.45
1652;BME280;823;49.028;8.454;2022-08-19T14:38:23;99992.44;;;31.83;24.67
1652;BME280;823;49.028;8.454;2022-08-19T14:43:23;99986.28;;;31.89;24.90
1652;BME280;823;49.028;8.454;2022-08-19T14:48:23;99996.44;;;32.07;25.10
1652;BME280;823;49.028;8.454;2022-08-19T14:53:24;99995.72;;;31.91;24.57
1652;BME280;823;49.028;8.454;2022-08-19T14:58:24;99990.38;;;31.85;24.74
1652;BME280;823;49.028;8.454;2022-08-19T15:03:25;99990.81;;;31.95;24.94
1652;BME280;823;49.028;8.454;2022-08-19T15:08:27;99994.09;;;31.90;24.68
1652;BME280;823;49.028;8.454;2022-08-19T15:13:29;99994.50;;;31.81;24.81
1652;BME280;823;49.028;8.454;2022-08-19T15:18:30;100001.03;;;31.71;25.19
1652;BME280;823;49.028;8.454;2022-08-19T15:23:30;100005.16;;;31.74;25.64
1652;BME280;823;49.028;8.454;2022-08-19T15:28:31;100010.78;;;31.57;26.34
1652;BME280;823;49.028;8.454;2022-08-19T15:33:34;100019.22;;;31.54;25.14
1652;BME280;823;49.028;8.454;2022-08-19T15:38:38;100018.56;;;31.52;25.45
1652;BME280;823;49.028;8.454;2022-08-19T15:43:41;100014.47;;;31.56;25.98
1652;BME280;823;49.028;8.454;2022-08-19T15:48:41;100006.63;;;31.48;25.66
1652;BME280;823;49.028;8.454;2022-08-19T15:53:42;100008.72;;;31.53;25.49
1652;BME280;823;49.028;8.454;2022-08-19T15:58:42;100004.19;;;31.53;25.75
1652;BME280;823;49.028;8.454;2022-08-19T16:04:02;100004.16;;;31.47;25.80
1652;BME280;823;49.028;8.454;2022-08-19T16:09:23;100006.22;;;31.45;25.55
1652;BME280;823;49.028;8.454;2022-08-19T16:14:24;100003.34;;;31.46;25.81
1652;BME280;823;49.028;8.454;2022-08-19T16:19:25;100002.28;;;31.40;25.30
1652;BME280;823;49.028;8.454;2022-08-19T16:24:26;100002.69;;;31.44;25.47
1652;BME280;823;49.028;8.454;2022-08-19T16:29:27;100015.28;;;31.50;25.58
1652;BME280;823;49.028;8.454;2022-08-19T16:34:28;100002.75;;;31.51;25.45
1652;BME280;823;49.028;8.454;2022-08-19T16:39:28;100008.28;;;31.49;25.64
1652;BME280;823;49.028;8.454;2022-08-19T16:44:29;100004.00;;;31.55;25.39
1652;BME280;823;49.028;8.454;2022-08-19T16:49:29;100010.63;;;31.59;25.54
1652;BME280;823;49.028;8.454;2022-08-19T16:54:30;100006.22;;;31.51;25.24
1652;BME280;823;49.028;8.454;2022-08-19T16:59:32;100017.34;;;31.55;25.49
1652;BME280;823;49.028;8.454;2022-08-19T17:04:33;100014.69;;;31.55;25.64
1652;BME280;823;49.028;8.454;2022-08-19T17:09:33;100022.63;;;31.41;25.09
1652;BME280;823;49.028;8.454;2022-08-19T17:14:34;100017.28;;;31.41;26.31
1652;BME280;823;49.028;8.454;2022-08-19T17:19:34;100023.63;;;31.34;26.00
1652;BME280;823;49.028;8.454;2022-08-19T17:24:35;100028.06;;;31.20;26.22
1652;BME280;823;49.028;8.454;2022-08-19T17:29:35;100031.28;;;31.15;26.62
1652;BME280;823;49.028;8.454;2022-08-19T17:34:36;100038.00;;;31.04;26.94
1652;BME280;823;49.028;8.454;2022-08-19T17:39:37;100049.41;;;30.98;27.81
1652;BME280;823;49.028;8.454;2022-08-19T17:44:38;100048.94;;;30.66;35.40
1652;BME280;823;49.028;8.454;2022-08-19T17:49:39;100042.00;;;29.99;37.28
1652;BME280;823;49.028;8.454;2022-08-19T17:54:40;100043.94;;;29.60;38.71
1652;BME280;823;49.028;8.454;2022-08-19T17:59:40;100048.81;;;29.42;40.15
1652;BME280;823;49.028;8.454;2022-08-19T18:04:41;100046.41;;;29.32;39.88
1652;BME280;823;49.028;8.454;2022-08-19T18:09:41;100054.63;;;29.22;40.45
1652;BME280;823;49.028;8.454;2022-08-19T18:14:42;100056.00;;;29.18;39.78
1652;BME280;823;49.028;8.454;2022-08-19T18:19:43;100066.50;;;28.96;36.36
1652;BME280;823;49.028;8.454;2022-08-19T18:24:44;100070.00;;;28.97;34.37
1652;BME280;823;49.028;8.454;2022-08-19T18:29:44;100073.41;;;29.05;35.16
1652;BME280;823;49.028;8.454;2022-08-19T18:34:44;100071.56;;;29.06;35.38
1652;BME280;823;49.028;8.454;2022-08-19T18:39:45;100085.06;;;29.04;34.55
1652;BME280;823;49.028;8.454;2022-08-19T18:45:05;100092.25;;;29.04;34.88
1652;BME280;823;49.028;8.454;2022-08-19T18:50:24;100095.50;;;28.91;34.27
1652;BME280;823;49.028;8.454;2022-08-19T18:55:24;100095.50;;;28.91;32.41
1652;BME280;823;49.028;8.454;2022-08-19T19:00:28;100097.44;;;28.97;32.79
1652;BME280;823;49.028;8.454;2022-08-19T19:05:29;100115.25;;;28.97;32.39
1652;BME280;823;49.028;8.454;2022-08-19T19:10:29;100118.69;;;29.05;32.04
1652;BME280;823;49.028;8.454;2022-08-19T19:15:29;100123.00;;;29.07;32.59
1652;BME280;823;49.028;8.454;2022-08-19T19:20:30;100125.06;;;28.96;32.49
1652;BME280;823;49.028;8.454;2022-08-19T19:25:31;100132.06;;;28.97;33.77
1652;BME280;823;49.028;8.454;2022-08-19T19:30:33;100133.81;;;28.82;33.07
1652;BME280;823;49.028;8.454;2022-08-19T19:35:33;100141.91;;;28.65;31.48
1652;BME280;823;49.028;8.454;2022-08-19T19:40:34;100157.00;;;28.73;32.41
1652;BME280;823;49.028;8.454;2022-08-19T19:45:34;100166.50;;;28.59;32.39
1652;BME280;823;49.028;8.454;2022-08-19T19:50:36;100175.00;;;28.54;31.83
1652;BME280;823;49.028;8.454;2022-08-19T19:55:37;100171.34;;;28.56;32.77
1652;BME280;823;49.028;8.454;2022-08-19T20:00:40;100177.22;;;28.51;32.81
1652;BME280;823;49.028;8.454;2022-08-19T20:05:40;100187.88;;;28.43;32.82
1652;BME280;823;49.028;8.454;2022-08-19T20:10:42;100202.34;;;28.40;33.27
1652;BME280;823;49.028;8.454;2022-08-19T20:15:43;100205.84;;;28.41;33.20
1652;BME280;823;49.028;8.454;2022-08-19T20:20:43;100210.19;;;28.33;33.56
1652;BME280;823;49.028;8.454;2022-08-19T20:25:49;100228.81;;;28.25;33.82
1652;BME280;823;49.028;8.454;2022-08-19T20:30:50;100229.63;;;28.26;33.94
1652;BME280;823;49.028;8.454;2022-08-19T20:35:50;100229.84;;;28.16;34.31
1652;BME280;823;49.028;8.454;2022-08-19T20:40:51;100244.13;;;28.15;34.80
1652;BME280;823;49.028;8.454;2022-08-19T20:45:53;100244.31;;;28.05;35.52
1652;BME280;823;49.028;8.454;2022-08-19T20:50:54;100244.13;;;27.98;35.16
1652;BME280;823;49.028;8.454;2022-08-19T20:55:57;100242.47;;;27.97;35.66
1652;BME280;823;49.028;8.454;2022-08-19T21:00:59;100247.63;;;27.91;35.98
1652;BME280;823;49.028;8.454;2022-08-19T21:06:02;100256.94;;;27.86;36.07
1652;BME280;823;49.028;8.454;2022-08-19T21:11:04;100262.25;;;27.78;36.92
1652;BME280;823;49.028;8.454;2022-08-19T21:16:04;100271.53;;;27.74;37.53
1652;BME280;823;49.028;8.454;2022-08-19T21:21:05;100270.03;;;27.55;37.38
1652;BME280;823;49.028;8.454;2022-08-19T21:26:05;100270.38;;;27.52;38.26
1652;BME280;823;49.028;8.454;2022-08-19T21:31:07;100282.28;;;27.40;38.46
1652;BME280;823;49.028;8.454;2022-08-19T21:36:09;100289.72;;;27.28;39.13
1652;BME280;823;49.028;8.454;2022-08-19T21:41:10;100287.88;;;27.20;40.19
1652;BME280;823;49.028;8.454;2022-08-19T21:46:10;100281.72;;;27.11;40.34
1652;BME280;823;49.028;8.454;2022-08-19T21:51:10;100291.44;;;27.02;40.50
1652;BME280;823;49.028;8.454;2022-08-19T21:56:11;100297.91;;;26.92;40.80
1652;BME280;823;49.028;8.454;2022-08-19T22:01:12;100305.81;;;26.83;40.89
1652;BME280;823;49.028;8.454;2022-08-19T22:06:12;100299.84;;;26.81;41.44
1652;BME280;823;49.028;8.454;2022-08-19T22:11:12;100294.84;;;26.78;41.26
1652;BME280;823;49.028;8.454;2022-08-19T22:16:13;100296.00;;;26.76;41.85
1652;BME280;823;49.028;8.454;2022-08-19T22:21:14;100302.22;;;26.66;41.93
1652;BME280;823;49.028;8.454;2022-08-19T22:26:15;100301.72;;;26.63;42.12
1652;BME280;823;49.028;8.454;2022-08-19T22:31:16;100313.47;;;26.60;42.14
1652;BME280;823;49.028;8.454;2022-08-19T22:36:17;100307.13;;;26.53;42.26
1652;BME280;823;49.028;8.454;2022-08-19T22:41:18;100310.06;;;26.50;42.58
1652;BME280;823;49.028;8.454;2022-08-19T22:46:19;100315.19;;;26.43;42.65
1652;BME280;823;49.028;8.454;2022-08-19T22:51:19;100313.00;;;26.39;42.69
1652;BME280;823;49.028;8.454;2022-08-19T22:56:45;100304.69;;;26.33;42.92
1652;BME280;823;49.028;8.454;2022-08-19T23:01:46;100302.88;;;26.34;42.98
1652;BME280;823;49.028;8.454;2022-08-19T23:06:46;100312.59;;;26.25;43.36
1652;BME280;823;49.028;8.454;2022-08-19T23:11:46;100315.53;;;26.22;43.70
1652;BME280;823;49.028;8.454;2022-08-19T23:16:47;100316.75;;;26.10;44.07
1652;BME280;823;49.028;8.454;2022-08-19T23:21:48;100310.94;;;26.06;44.26
1652;BME280;823;49.028;8.454;2022-08-19T23:26:49;100309.25;;;25.87;44.17
1652;BME280;823;49.028;8.454;2022-08-19T23:32:08;100307.50;;;25.96;44.47
1652;BME280;823;49.028;8.454;2022-08-19T23:37:08;100305.72;;;25.78;44.80
1652;BME280;823;49.028;8.454;2022-08-19T23:42:10;100304.19;;;25.76;44.79
1652;BME280;823;49.028;8.454;2022-08-19T23:47:10;100300.84;;;25.74;45.18
1652;BME280;823;49.028;8.454;2022-08-19T23:52:11;100308.06;;;25.63;45.40
1652;BME280;823;49.028;8.454;2022-08-19T23:57:11;100305.41;;;25.63;45.53
